EDDS Airport Information

Runway Information
Runway 07 Length 10974 ft width 148 ft
Elevation 1267 ft Threshold 984 ft Heading 74
Runway 25 Length 10974 ft Width 148 ft
Elevation 1181 ft Threshold 0 ft Heading 254
Airport Frequencies
Type ATIS Name ATIS Frequency 126.125 MHZ
Type CLD Name CLNC DEL Frequency 121.9 MHZ
Type DIR Name DIR Frequency 119.85 MHZ
Type GND Name GND Frequency 118.6 MHZ
Type INFO Name LANGEN INF Frequency 128.95 MHZ
Type MISC Name DEICING Frequency 136.825 MHZ
Type PTD Name BASE OPS P Frequency 31.8 MHZ
Type RDR Name LANGEN RAD Frequency 119.2 MHZ
Type RMP Name APRON Frequency 121.7 MHZ
Type TWR Name TWR Frequency 118.8 MHZ
Airport Navaids
Type VOR-DME Name Luburg Frequency 109200 KHZ
Type NDB Name Stuttgart Frequency 306 KHZ
Type DME Name Stuttgart Frequency 115450 KHZ
Type NDB Name Stuttgart Frequency 384 KHZ
Airport Weather Information & NOTAM
ADDS - METARS form results

(1209 UTC 18 October 2018)
Data provider http://aviationweather.gov/metar/data/
 
METAR text: EDDS 181150Z 03005KT 340V100 CAVOK 19/09 Q1020 NOSIG
Conditions at: EDDS (STUTTGART/ECHTER, DE) observed 1150 UTC 18 October 2018
Temperature: 19.0°C (66°F)
Dewpoint: 9.0°C (48°F) [RH = 52%]
Pressure (altimeter): 30.12 inches Hg (1020.0 mb)
Winds: from the NNE (30 degrees) at 6 MPH (5 knots; 2.6 m/s)
Visibility: 6 or more miles (10+ km)
Ceiling: ceiling and visibility are OK
Clouds: unknown
Weather: no significant weather observed at this time

METAR text: EDDS 181120Z VRB03KT CAVOK 18/09 Q1020 NOSIG
Conditions at: EDDS (STUTTGART/ECHTER, DE) observed 1120 UTC 18 October 2018
Temperature: 18.0°C (64°F)
Dewpoint: 9.0°C (48°F) [RH = 56%]
Pressure (altimeter): 30.12 inches Hg (1020.0 mb)
Winds: variable direction winds at 3 MPH (3 knots; 1.5 m/s)
Visibility: 6 or more miles (10+ km)
Ceiling: ceiling and visibility are OK
Clouds: unknown
Weather: no significant weather observed at this time

Forecast for: EDDS (STUTTGART/ECHTER, DE)
Text: TAF EDDS 181100Z 1812/1912 03006KT CAVOK
Forecast period: 1200 to 1900 UTC 18 October 2018
Forecast type: FROM: standard forecast or significant change
Winds: from the NNE (30 degrees) at 7 MPH (6 knots; 3.1 m/s)
Visibility: 6 or more miles 10+ km)
Ceiling: unknown
Clouds: missing
Weather: NSW  (no significant weather)
Text: BECMG 1819/1821 VRB03KT
Forecast period: 1900 UTC 18 October 2018 to 0700 UTC 19 October 2018
Forecast type: BECOMING: Conditions expected to become as follows by 2100 UTC 18 October 2018
Winds: variable direction winds at 3 MPH (3 knots; 1.5 m/s)
Visibility: 6 or more miles 10+ km)
Ceiling: unknown
Clouds: missing
Weather: NSW  (no significant weather)
Text: BECMG 1907/1910 06005KT
Forecast period: 0700 to 1200 UTC 19 October 2018
Forecast type: BECOMING: Conditions expected to become as follows by 1000 UTC 19 October 2018
Winds: from the ENE (60 degrees) at 6 MPH (5 knots; 2.6 m/s)
Visibility: 6 or more miles 10+ km)
Ceiling: unknown
Clouds: missing
Weather: NSW  (no significant weather)